Date,TemperatureHighF,TemperatureAvgF,TemperatureLowF,DewpointHighF,DewpointAvgF,DewpointLowF,HumidityHigh,HumidityAvg,HumidityLow,PressureMaxIn,PressureMinIn,WindSpeedMaxMPH,WindSpeedAvgMPH,GustSpeedMaxMPH,PrecipitationSumIn
2013-3-7,37.7,34.5,30.3,31.8,28.8,26.5,90,80,72,30.44,30.38,6,1,7,0.01
2013-3-8,50.8,38.2,25.6,33.5,28.3,23.0,93,69,47,30.49,30.36,15,2,16,0.00
2013-3-9,59.7,47.1,29.7,38.8,33.7,26.3,89,62,40,30.37,30.04,14,3,14,0.00
2013-3-10,70.8,59.1,50.1,48.6,39.9,35.8,85,50,34,30.04,29.79,27,6,27,0.04
2013-3-11,53.2,46.4,36.3,52.1,43.0,30.7,96,88,68,29.95,29.69,24,6,25,1.36
2013-3-12,49.9,39.9,34.4,33.5,29.2,25.0,85,67,47,30.14,29.95,19,4,25,0.00
2013-3-13,36.0,35.2,34.5,31.8,30.6,27.3,88,83,73,30.14,30.12,10,1,12,0.00
2013-3-17,37.9,35.2,34.0,35.8,33.5,32.2,94,93,92,30.10,29.91,20,5,23,1.17
2013-3-18,49.9,42.0,35.5,47.4,39.8,33.7,100,92,82,29.93,29.66,21,4,21,0.80
2013-3-19,47.9,38.4,29.0,35.2,24.8,17.9,92,61,34,30.20,29.92,20,4,23,0.00
2013-3-20,39.8,30.8,22.7,25.6,19.7,12.7,91,65,41,30.19,30.07,23,4,28,0.00
2013-3-21,37.3,26.5,19.2,18.4,14.1,10.7,77,60,39,30.12,30.04,17,2,17,0.00
2013-3-22,22.5,20.5,18.8,16.9,16.0,15.2,86,83,77,30.09,30.08,1,0,1,0.00
2013-3-24,39.0,37.1,34.3,37.6,34.6,32.0,95,91,85,29.69,29.41,23,5,24,0.58
2013-3-25,35.4,32.5,31.0,32.2,29.8,27.7,93,90,84,30.07,29.51,21,4,22,0.05
2013-3-26,41.5,35.5,32.1,31.4,28.7,25.1,92,77,56,30.33,30.06,15,3,17,0.03
2013-3-27,46.5,35.3,25.0,29.8,25.4,21.8,91,69,46,30.40,30.33,13,1,13,0.00
2013-3-28,54.6,37.0,21.5,33.0,26.5,19.3,93,69,39,30.43,30.32,12,1,12,0.00
2013-3-29,58.1,42.8,28.3,44.8,35.3,25.3,91,76,56,30.35,30.22,12,2,13,0.00
2013-3-30,62.2,46.1,31.9,48.6,38.0,30.4,100,76,43,30.26,29.95,16,2,16,0.01
2013-3-31,61.6,50.9,42.8,50.2,46.0,40.1,96,84,60,29.96,29.84,15,2,17,0.09